Latest Coastal Weather Observations for Robe Airport

IDS60701

Issued at 5:51 pm CST Tuesday 28 July 2015 (issued every 10 minutes, with the page automatically refreshed every 10 minutes)

About coastal observations | Map of coastal stations | Coastal observations for SA | Marine services | Other Formats
Station Details ID: 026105 Name: ROBE AIRFIELD Lat: -37.18 Lon: 139.81 Height: 3.0 m
Data from the previous 72 hours. | See also: Recent months at Robe Airport
Date/Time
CST
Temp

°C
Wind Pressure Rain
since 9am
mm
Weather Cloud Vis
km
Sea
Height
m
Swell
Dir
 
Speed
knots
Gust
knots
hPa Trend Height
m
Period
s
Dir
28/05:30pm 10.7 NNW 4 6 1034.0 - 0.0 - - - - - - -
28/05:00pm 11.3 NNW 5 8 1033.9 - 0.0 - - - - - - -
28/04:30pm 11.9 NNW 4 5 1034.0 - 0.0 - - - - - - -
28/04:00pm 12.5 NW 5 6 1034.1 - 0.0 - - - - - - -
28/03:30pm 12.4 NW 5 7 1034.1 - 0.0 - - - - - - -
28/03:00pm 13.4 NNW 7 9 1034.1 - 0.0 - - - - - - -
28/02:30pm 14.0 NW 8 11 1034.0 - 0.0 - - - - - - -
28/02:00pm 12.5 WNW 8 13 1034.3 - 0.0 - - - - - - -
28/01:30pm 13.3 NW 8 11 1034.5 - 0.0 - - - - - - -
28/01:00pm 14.0 NW 8 10 1034.8 - 0.0 - - - - - - -
28/12:30pm 14.2 WNW 7 11 1035.4 - 0.0 - - - - - - -
28/12:00pm 12.6 NW 4 5 1035.6 - 0.0 - - - - - - -
28/11:30am 11.8 WNW 9 15 1036.3 - 0.0 - - - - - - -
28/11:00am 12.8 W 8 12 1036.5 - 0.0 - - - - - - -
28/10:30am 13.9 WNW 7 12 1036.5 - 0.0 - - - - - - -
28/10:00am 13.2 W 6 9 1036.5 - 0.0 - - - - - - -
28/09:30am 12.7 W 5 8 1036.3 - 0.0 - - - - - - -
28/09:00am 12.1 W 2 3 1036.1 - 1.6 - - - - - - -
28/08:30am 11.0 W 2 2 1035.8 - 1.6 - - - - - - -
28/08:00am 9.2 W 2 3 1035.7 - 1.6 - - - - - - -
28/07:30am 8.3 W 3 4 1035.8 - 1.6 - - - - - - -
28/07:00am 8.3 W 4 7 1035.7 - 1.6 - - - - - - -
28/06:30am 7.9 W 3 5 1035.4 - 1.6 - - - - - - -
28/06:00am 8.4 W 3 4 1035.2 - 1.6 - - - - - - -
28/05:30am 8.7 W 3 5 1034.7 - 1.6 - - - - - - -
28/05:00am 8.5 WNW 4 4 1034.6 - 1.6 - - - - - - -
28/04:30am 8.4 W 4 5 1034.3 - 1.6 - - - - - - -
28/04:00am 8.5 W 3 3 1034.2 - 1.6 - - - - - - -
28/03:30am 8.9 W 4 5 1034.5 - 1.6 - - - - - - -
28/03:00am 9.4 W 3 5 1034.6 - 1.6 - - - - - - -
28/02:30am 9.1 W 3 6 1034.6 - 1.6 - - - - - - -
28/02:00am 9.3 W 4 6 1034.5 - 1.6 - - - - - - -
28/01:30am 8.9 W 3 5 1034.4 - 1.6 - - - - - - -
28/01:00am 9.9 WSW 5 11 1034.4 - 1.4 - - - - - - -
28/12:30am 9.3 WSW 4 7 1034.3 - 1.4 - - - - - - -
28/12:00am 9.3 W 4 7 1034.3 - 1.4 - - - - - - -
 
Date/Time
CST
Temp

°C
Wind Pressure Rain
since 9am
mm
Weather Cloud Vis
km
Sea
Height
m
Swell
Dir
 
Speed
knots
Gust
knots
hPa Trend Height
m
Period
s
Dir
27/11:30pm 8.0 W 3 4 1034.2 - 1.4 - - - - - - -
27/11:00pm 8.3 W 3 4 1034.2 - 1.4 - - - - - - -
27/10:30pm 8.5 W 3 3 1034.2 - 1.4 - - - - - - -
27/10:00pm 8.9 W 3 5 1034.2 - 1.4 - - - - - - -
27/09:30pm 9.4 WSW 4 6 1034.2 - 1.4 - - - - - - -
27/09:00pm 8.7 WSW 2 3 1034.1 - 1.4 - - - - - - -
27/08:30pm 8.7 WSW 3 5 1034.0 - 1.4 - - - - - - -
27/08:00pm 9.7 WSW 4 7 1034.1 - 1.4 - - - - - - -
27/07:30pm 9.5 WSW 4 6 1034.0 - 1.4 - - - - - - -
27/07:00pm 9.7 WSW 5 8 1033.9 - 1.4 - - - - - - -
27/06:30pm 9.7 WSW 5 8 1033.8 - 1.2 - - - - - - -
27/06:00pm 9.6 WSW 4 6 1033.6 - 1.2 Recent precip. - - - - - -
27/05:30pm 9.7 WSW 7 11 1033.2 - 1.2 - - - - - - -
27/05:00pm 10.2 W 4 6 1033.1 - 0.8 - - - - - - -
27/04:30pm 10.6 WSW 6 12 1033.1 - 0.8 - - - - - - -
27/04:00pm 10.7 WSW 4 9 1032.8 - 0.8 - - - - - - -
27/03:30pm 10.7 SW 7 12 1032.7 - 0.8 - - - - - - -
27/03:00pm 11.3 WSW 7 12 1032.7 - 0.6 Recent precip. - - - - - -
27/02:30pm 10.4 WSW 7 14 1032.5 - 0.6 - - - - - - -
27/02:00pm 11.1 WSW 8 12 1032.3 - 0.4 - - - - - - -
27/01:30pm 12.3 W 8 11 1032.2 - 0.4 - - - - - - -
27/01:00pm 11.4 W 8 14 1032.1 - 0.4 - - - - - - -
27/12:30pm 12.6 W 8 11 1032.2 - 0.0 - - - - - - -
27/12:00pm 12.0 W 7 11 1032.4 - 0.0 - - - - - - -
27/11:30am 13.0 WSW 7 13 1032.8 - 0.0 - - - - - - -
27/11:00am 12.0 WSW 8 12 1032.9 - 0.0 - - - - - - -
27/10:30am 12.0 WSW 7 12 1032.9 - 0.0 - - - - - - -
27/10:00am 12.1 SSW 10 15 1032.6 - 0.0 - - - - - - -
27/09:30am 11.7 SSW 12 17 1032.3 - 0.0 - - - - - - -
27/09:00am 11.7 SW 7 12 1031.9 - 0.8 - - - - - - -
27/08:30am 10.7 SW 9 15 1031.5 - 0.8 - - - - - - -
27/08:00am 10.3 SW 7 12 1031.1 - 0.8 - - - - - - -
27/07:30am 9.9 WSW 5 10 1030.7 - 0.8 - - - - - - -
27/07:00am 9.4 W 6 9 1030.4 - 0.8 - - - - - - -
27/06:30am 9.5 SW 7 12 1030.1 - 0.8 - - - - - - -
27/06:00am 9.8 SW 8 13 1029.8 - 0.8 - - - - - - -
27/05:30am 9.3 WSW 8 14 1029.5 - 0.8 - - - - - - -
27/05:00am 9.6 SW 7 12 1029.4 - 0.8 - - - - - - -
27/04:30am 9.5 SW 6 9 1029.0 - 0.6 - - - - - - -
27/04:00am 9.7 SW 8 14 1028.8 - 0.6 - - - - - - -
27/03:30am 9.2 SW 7 12 1028.7 - 0.6 - - - - - - -
27/03:00am 8.3 WSW 6 9 1028.6 - 0.6 - - - - - - -
27/02:30am 8.9 SW 9 15 1028.6 - 0.6 - - - - - - -
27/02:00am 9.3 WSW 9 16 1028.4 - 0.6 - - - - - - -
27/01:30am 8.8 SW 8 14 1028.2 - 0.6 - - - - - - -
27/01:00am 9.1 SW 9 13 1028.0 - 0.6 - - - - - - -
27/12:30am 8.6 SW 6 9 1027.9 - 0.6 - - - - - - -
27/12:00am 8.5 SW 9 17 1027.7 - 0.6 Rain - - - - - -
 
Date/Time
CST
Temp

°C
Wind Pressure Rain
since 9am
mm
Weather Cloud Vis
km
Sea
Height
m
Swell
Dir
 
Speed
knots
Gust
knots
hPa Trend Height
m
Period
s
Dir
26/11:30pm 9.3 SW 11 16 1027.4 - 0.4 - - - - - - -
26/11:00pm 8.5 SSW 11 15 1027.3 - 0.4 - - - - - - -
26/10:30pm 8.2 SW 6 9 1027.2 - 0.4 - - - - - - -
26/10:00pm 9.3 SW 11 17 1026.9 - 0.4 - - - - - - -
26/09:30pm 8.4 SW 9 14 1026.9 - 0.4 - - - - - - -
26/09:01pm 8.9 SW 12 27 1026.6 - 0.4 - - - - - - -
26/09:00pm 9.0 SW 10 24 1026.6 - 0.4 - - - - - - -
26/08:30pm 9.3 SW 12 19 1026.0 - 0.4 - - - - - - -
26/08:00pm 8.9 SW 14 22 1025.7 - 0.4 - - - - - - -
26/07:53pm 9.3 SW 15 23 1025.5 - 0.4 - - - - - - -
26/07:30pm 9.0 SW 6 12 1025.1 - 0.4 - - - - - - -
26/07:00pm 9.0 SW 13 20 1024.7 - 0.4 - - - - - - -
26/06:30pm 9.3 SW 14 22 1024.1 - 0.4 - - - - - - -
26/06:00pm 9.2 SW 12 17 1023.6 - 0.4 Recent precip. - - - - - -
26/05:30pm 7.8 SW 9 13 1023.1 - 0.2 - - - - - - -
26/05:10pm 8.6 SW 15 28 1023.0 - 0.2 - - - - - - -
26/05:00pm 8.9 SW 13 21 1022.6 - 0.2 - - - - - - -
26/04:30pm 9.9 SW 12 21 1022.2 - 0.2 - - - - - - -
26/04:00pm 9.9 SW 16 25 1021.9 - 0.2 - - - - - - -
26/03:31pm 10.3 SW 15 26 1021.4 - 0.2 - - - - - - -
26/03:30pm 10.4 SW 14 26 1021.3 - 0.2 - - - - - - -
26/03:00pm 10.4 SW 13 20 1021.1 - 0.2 - - - - - - -
26/02:30pm 9.5 SW 17 29 1020.9 - 0.2 - - - - - - -
26/02:27pm 9.7 SW 15 29 1020.8 - 0.2 - - - - - - -
26/02:00pm 9.1 SW 10 16 1020.4 - 0.2 - - - - - - -
26/01:43pm 9.3 SW 15 30 1020.2 - 0.0 - - - - - - -
26/01:30pm 9.9 WSW 13 25 1020.3 - 0.0 - - - - - - -
26/01:00pm 9.9 W 10 18 1020.0 - 0.0 - - - - - - -
26/12:30pm 9.5 SW 18 29 1019.9 - 0.0 - - - - - - -
26/12:20pm 10.9 SW 15 26 1019.5 - 0.0 - - - - - - -
26/12:00pm 10.9 WSW 14 23 1019.6 - 0.0 - - - - - - -
26/11:30am 9.8 WSW 16 29 1019.6 - 0.0 - - - - - - -
26/11:00am 11.0 WSW 15 26 1019.2 - 0.0 - - - - - - -
26/10:30am 10.1 W 14 25 1019.1 - 0.0 - - - - - - -
26/10:00am 9.6 W 10 22 1018.8 - 0.0 - - - - - - -
26/09:31am 9.5 WSW 17 28 1018.6 - 0.0 - - - - - - -
26/09:30am 9.7 WSW 16 26 1018.6 - 0.0 - - - - - - -
26/09:07am 9.8 WSW 15 26 1017.9 - 0.0 - - - - - - -
26/09:00am 9.5 WSW 12 24 1017.7 - 10.6 - - - - - - -
26/08:30am 8.7 W 10 15 1017.2 - 10.6 - - - - - - -
26/08:01am 7.8 WSW 16 27 1016.8 - 10.6 - - - - - - -
26/08:00am 7.9 WSW 16 27 1016.8 - 10.6 - - - - - - -
26/07:33am 9.2 WSW 15 27 1016.1 - 10.6 - - - - - - -
26/07:30am 9.1 WSW 16 25 1016.2 - 10.6 - - - - - - -
26/07:00am 7.5 WSW 18 33 1015.8 - 10.6 - - - - - - -
26/06:50am 9.2 WSW 15 25 1015.3 - 10.6 - - - - - - -
26/06:30am 8.6 WSW 14 22 1014.9 - 10.6 - - - - - - -
26/06:06am 8.2 WSW 15 27 1014.7 - 10.6 - - - - - - -
26/06:00am 7.9 WSW 14 24 1014.5 - 10.6 Recent precip. - - - - - -
26/05:30am 7.3 WSW 17 35 1014.0 - 10.4 - - - - - - -
26/05:28am 7.4 WSW 14 35 1013.9 - 10.4 - - - - - - -
26/05:00am 8.8 WSW 15 28 1013.3 - 9.8 - - - - - - -
26/04:30am 8.5 WSW 15 26 1013.1 - 9.8 - - - - - - -
26/04:00am 7.5 WSW 17 28 1012.8 - 9.8 - - - - - - -
26/03:42am 8.8 WSW 15 28 1012.5 - 9.4 - - - - - - -
26/03:30am 8.4 W 13 28 1012.4 - 9.4 - - - - - - -
26/03:00am 8.0 W 13 32 1012.8 - 9.0 Rain - - - - - -
26/02:30am 7.3 WSW 18 36 1012.6 - 8.4 - - - - - - -
26/02:27am 7.8 WSW 17 36 1012.7 - 8.4 - - - - - - -
26/02:00am 8.6 W 15 25 1012.3 - 8.4 - - - - - - -
26/01:30am 7.2 W 19 31 1012.7 - 8.2 - - - - - - -
26/01:00am 9.3 W 15 25 1011.8 - 7.8 - - - - - - -
26/12:34am 9.7 W 15 25 1011.4 - 7.8 - - - - - - -
26/12:30am 9.4 W 14 22 1011.4 - 7.8 - - - - - - -
26/12:00am 8.7 W 18 31 1011.4 - 7.8 Recent precip. - - - - - -
 
Date/Time
CST
Temp

°C
Wind Pressure Rain
since 9am
mm
Weather Cloud Vis
km
Sea
Height
m
Swell
Dir
 
Speed
knots
Gust
knots
hPa Trend Height
m
Period
s
Dir
25/11:30pm 9.7 WSW 16 28 1011.0 - 7.6 - - - - - - -
25/11:12pm 10.4 W 16 27 1010.8 - 7.6 - - - - - - -
25/11:00pm 10.2 W 16 26 1010.8 - 7.6 - - - - - - -
25/10:30pm 8.4 W 15 26 1010.8 - 7.6 - - - - - - -
25/10:11pm 10.4 W 16 35 1010.8 - 7.2 - - - - - - -
25/10:00pm 10.2 W 13 20 1010.5 - 7.2 - - - - - - -
25/09:30pm 10.2 W 16 28 1010.6 - 7.2 - - - - - - -
25/09:23pm 11.0 W 15 29 1010.3 - 7.2 - - - - - - -
25/09:00pm 10.7 W 13 22 1010.1 - 7.2 - - - - - - -
25/08:32pm 11.0 W 17 27 1009.7 - 7.2 - - - - - - -
25/08:30pm 11.3 W 18 27 1009.7 - 7.2 - - - - - - -
25/08:06pm 10.9 W 15 29 1009.4 - 7.2 - - - - - - -
25/08:00pm 10.7 W 14 25 1009.3 - 7.2 - - - - - - -
25/07:33pm 10.0 W 15 26 1009.1 - 7.2 - - - - - - -
25/07:30pm 10.1 W 13 26 1009.0 - 7.2 - - - - - - -
25/07:00pm 10.9 W 15 30 1008.5 - 6.8 - - - - - - -
25/06:30pm 10.3 W 15 30 1008.0 - 6.6 - - - - - - -
25/06:24pm 10.4 W 15 27 1008.0 - 6.4 - - - - - - -
25/06:00pm 10.2 NW 18 25 1007.1 - 4.0 Rain - - - - - -

Other Formats:

Comma delimited format used in spreadsheet applications
http://www.bom.gov.au/fwo/IDS60701/IDS60701.95816.axf

JavaScript Object Notation format (JSON) in row-major order
http://www.bom.gov.au/fwo/IDS60701/IDS60701.95816.json